sensor_id;sensor_type;location;lat;lon;timestamp;P1;durP1;ratioP1;P2;durP2;ratioP2
3747;SDS011;1889;50.058;8.688;2022-12-29T00:00:18;2.22;;;1.70;;
3747;SDS011;1889;50.058;8.688;2022-12-29T00:02:48;4.10;;;1.40;;
3747;SDS011;1889;50.058;8.688;2022-12-29T00:05:17;2.40;;;1.85;;
3747;SDS011;1889;50.058;8.688;2022-12-29T00:07:46;2.80;;;2.17;;
3747;SDS011;1889;50.058;8.688;2022-12-29T00:10:16;2.25;;;1.60;;
3747;SDS011;1889;50.058;8.688;2022-12-29T00:12:45;2.65;;;1.50;;
3747;SDS011;1889;50.058;8.688;2022-12-29T00:15:32;2.65;;;1.60;;
3747;SDS011;1889;50.058;8.688;2022-12-29T00:18:06;2.12;;;1.62;;
3747;SDS011;1889;50.058;8.688;2022-12-29T00:20:36;2.92;;;1.60;;
3747;SDS011;1889;50.058;8.688;2022-12-29T00:23:24;2.40;;;1.55;;
3747;SDS011;1889;50.058;8.688;2022-12-29T00:26:12;1.65;;;1.55;;
3747;SDS011;1889;50.058;8.688;2022-12-29T00:29:03;1.65;;;1.55;;
3747;SDS011;1889;50.058;8.688;2022-12-29T00:31:50;2.20;;;1.47;;
3747;SDS011;1889;50.058;8.688;2022-12-29T00:34:37;2.35;;;1.52;;
3747;SDS011;1889;50.058;8.688;2022-12-29T00:37:25;1.77;;;1.30;;
3747;SDS011;1889;50.058;8.688;2022-12-29T00:39:56;2.20;;;1.70;;
3747;SDS011;1889;50.058;8.688;2022-12-29T00:42:43;2.37;;;1.62;;
3747;SDS011;1889;50.058;8.688;2022-12-29T00:45:30;1.82;;;1.40;;
3747;SDS011;1889;50.058;8.688;2022-12-29T00:47:59;2.25;;;1.50;;
3747;SDS011;1889;50.058;8.688;2022-12-29T00:50:29;1.45;;;1.15;;
3747;SDS011;1889;50.058;8.688;2022-12-29T00:52:58;2.98;;;1.75;;
3747;SDS011;1889;50.058;8.688;2022-12-29T00:55:27;1.32;;;1.22;;
3747;SDS011;1889;50.058;8.688;2022-12-29T00:57:57;1.45;;;1.27;;
3747;SDS011;1889;50.058;8.688;2022-12-29T01:00:26;1.30;;;1.00;;
3747;SDS011;1889;50.058;8.688;2022-12-29T01:02:55;4.22;;;1.50;;
3747;SDS011;1889;50.058;8.688;2022-12-29T01:05:25;2.17;;;1.32;;
3747;SDS011;1889;50.058;8.688;2022-12-29T01:07:54;1.95;;;1.30;;
3747;SDS011;1889;50.058;8.688;2022-12-29T01:10:24;1.30;;;0.98;;
3747;SDS011;1889;50.058;8.688;2022-12-29T01:12:53;1.27;;;1.10;;
3747;SDS011;1889;50.058;8.688;2022-12-29T01:15:23;1.20;;;1.10;;
3747;SDS011;1889;50.058;8.688;2022-12-29T01:17:52;1.20;;;1.10;;
3747;SDS011;1889;50.058;8.688;2022-12-29T01:20:21;4.20;;;1.30;;
3747;SDS011;1889;50.058;8.688;2022-12-29T01:22:50;1.40;;;1.27;;
3747;SDS011;1889;50.058;8.688;2022-12-29T01:25:20;2.05;;;1.25;;
3747;SDS011;1889;50.058;8.688;2022-12-29T01:27:49;0.85;;;0.85;;
3747;SDS011;1889;50.058;8.688;2022-12-29T01:30:19;1.30;;;1.15;;
3747;SDS011;1889;50.058;8.688;2022-12-29T01:32:48;2.47;;;1.27;;
3747;SDS011;1889;50.058;8.688;2022-12-29T01:35:17;1.12;;;1.10;;
3747;SDS011;1889;50.058;8.688;2022-12-29T01:37:47;1.55;;;1.17;;
3747;SDS011;1889;50.058;8.688;2022-12-29T01:40:16;1.42;;;1.20;;
3747;SDS011;1889;50.058;8.688;2022-12-29T01:42:45;2.35;;;0.93;;
3747;SDS011;1889;50.058;8.688;2022-12-29T01:45:16;2.20;;;1.22;;
3747;SDS011;1889;50.058;8.688;2022-12-29T01:47:50;2.30;;;1.00;;
3747;SDS011;1889;50.058;8.688;2022-12-29T01:50:36;1.22;;;1.12;;
3747;SDS011;1889;50.058;8.688;2022-12-29T01:53:10;2.00;;;1.40;;
3747;SDS011;1889;50.058;8.688;2022-12-29T01:55:45;1.15;;;1.05;;
3747;SDS011;1889;50.058;8.688;2022-12-29T01:58:12;1.60;;;1.10;;
3747;SDS011;1889;50.058;8.688;2022-12-29T02:00:43;1.42;;;1.15;;
3747;SDS011;1889;50.058;8.688;2022-12-29T02:03:12;2.15;;;1.15;;
3747;SDS011;1889;50.058;8.688;2022-12-29T02:05:51;1.62;;;1.00;;
3747;SDS011;1889;50.058;8.688;2022-12-29T02:08:28;2.47;;;0.85;;
3747;SDS011;1889;50.058;8.688;2022-12-29T02:10:58;1.52;;;1.05;;
3747;SDS011;1889;50.058;8.688;2022-12-29T02:13:29;1.00;;;0.90;;
3747;SDS011;1889;50.058;8.688;2022-12-29T02:21:35;1.15;;;0.98;;
3747;SDS011;1889;50.058;8.688;2022-12-29T02:27:12;0.70;;;0.70;;
3747;SDS011;1889;50.058;8.688;2022-12-29T02:29:52;0.70;;;0.70;;
3747;SDS011;1889;50.058;8.688;2022-12-29T02:32:54;1.52;;;0.90;;
3747;SDS011;1889;50.058;8.688;2022-12-29T02:45:02;0.70;;;0.70;;
3747;SDS011;1889;50.058;8.688;2022-12-29T02:46:58;1.02;;;0.60;;
3747;SDS011;1889;50.058;8.688;2022-12-29T02:49:53;0.90;;;0.68;;
3747;SDS011;1889;50.058;8.688;2022-12-29T02:52:25;0.80;;;0.80;;
3747;SDS011;1889;50.058;8.688;2022-12-29T02:54:55;0.78;;;0.60;;
3747;SDS011;1889;50.058;8.688;2022-12-29T02:57:28;1.20;;;0.68;;
3747;SDS011;1889;50.058;8.688;2022-12-29T03:00:09;1.40;;;0.70;;
3747;SDS011;1889;50.058;8.688;2022-12-29T03:08:14;0.60;;;0.60;;
3747;SDS011;1889;50.058;8.688;2022-12-29T03:11:08;0.57;;;0.57;;
3747;SDS011;1889;50.058;8.688;2022-12-29T03:13:44;0.50;;;0.50;;
3747;SDS011;1889;50.058;8.688;2022-12-29T03:19:28;1.25;;;0.70;;
3747;SDS011;1889;50.058;8.688;2022-12-29T03:21:59;1.60;;;0.80;;
3747;SDS011;1889;50.058;8.688;2022-12-29T03:24:50;0.80;;;0.80;;
3747;SDS011;1889;50.058;8.688;2022-12-29T03:27:30;1.55;;;0.70;;
3747;SDS011;1889;50.058;8.688;2022-12-29T03:30:00;0.70;;;0.70;;
3747;SDS011;1889;50.058;8.688;2022-12-29T03:32:36;1.57;;;0.80;;
3747;SDS011;1889;50.058;8.688;2022-12-29T03:35:17;1.25;;;1.00;;
3747;SDS011;1889;50.058;8.688;2022-12-29T03:37:59;1.37;;;0.70;;
3747;SDS011;1889;50.058;8.688;2022-12-29T03:40:47;0.62;;;0.40;;
3747;SDS011;1889;50.058;8.688;2022-12-29T03:43:20;0.62;;;0.60;;
3747;SDS011;1889;50.058;8.688;2022-12-29T03:45:50;3.33;;;0.90;;
3747;SDS011;1889;50.058;8.688;2022-12-29T03:48:19;1.45;;;0.90;;
3747;SDS011;1889;50.058;8.688;2022-12-29T03:50:49;0.93;;;0.82;;
3747;SDS011;1889;50.058;8.688;2022-12-29T03:53:21;1.10;;;0.82;;
3747;SDS011;1889;50.058;8.688;2022-12-29T03:55:50;1.95;;;0.90;;
3747;SDS011;1889;50.058;8.688;2022-12-29T03:58:19;1.25;;;0.95;;
3747;SDS011;1889;50.058;8.688;2022-12-29T04:00:48;2.15;;;0.85;;
3747;SDS011;1889;50.058;8.688;2022-12-29T04:03:18;1.12;;;0.50;;
3747;SDS011;1889;50.058;8.688;2022-12-29T04:05:47;6.65;;;0.90;;
3747;SDS011;1889;50.058;8.688;2022-12-29T04:08:16;1.32;;;1.05;;
3747;SDS011;1889;50.058;8.688;2022-12-29T04:10:47;1.32;;;0.85;;
3747;SDS011;1889;50.058;8.688;2022-12-29T04:13:17;1.02;;;0.82;;
3747;SDS011;1889;50.058;8.688;2022-12-29T04:15:46;0.90;;;0.90;;
3747;SDS011;1889;50.058;8.688;2022-12-29T04:18:16;0.93;;;0.93;;
3747;SDS011;1889;50.058;8.688;2022-12-29T04:20:45;1.15;;;1.00;;
3747;SDS011;1889;50.058;8.688;2022-12-29T04:23:32;4.33;;;1.12;;
3747;SDS011;1889;50.058;8.688;2022-12-29T04:26:03;1.10;;;1.00;;
3747;SDS011;1889;50.058;8.688;2022-12-29T04:28:36;1.70;;;1.25;;
3747;SDS011;1889;50.058;8.688;2022-12-29T04:31:06;1.35;;;1.20;;
3747;SDS011;1889;50.058;8.688;2022-12-29T04:33:35;1.17;;;0.70;;
3747;SDS011;1889;50.058;8.688;2022-12-29T04:36:05;1.55;;;0.90;;
3747;SDS011;1889;50.058;8.688;2022-12-29T04:38:34;0.70;;;0.70;;
3747;SDS011;1889;50.058;8.688;2022-12-29T04:41:03;0.98;;;0.78;;
3747;SDS011;1889;50.058;8.688;2022-12-29T04:43:33;2.80;;;1.10;;
3747;SDS011;1889;50.058;8.688;2022-12-29T04:46:02;1.30;;;1.00;;
3747;SDS011;1889;50.058;8.688;2022-12-29T04:48:32;1.80;;;1.00;;
3747;SDS011;1889;50.058;8.688;2022-12-29T04:51:01;1.42;;;1.05;;
3747;SDS011;1889;50.058;8.688;2022-12-29T04:53:30;0.90;;;0.80;;
3747;SDS011;1889;50.058;8.688;2022-12-29T04:55:59;0.93;;;0.82;;
3747;SDS011;1889;50.058;8.688;2022-12-29T04:58:29;0.78;;;0.78;;
3747;SDS011;1889;50.058;8.688;2022-12-29T05:00:58;2.45;;;1.15;;
3747;SDS011;1889;50.058;8.688;2022-12-29T05:03:27;1.07;;;0.80;;
3747;SDS011;1889;50.058;8.688;2022-12-29T05:05:57;2.58;;;1.00;;
3747;SDS011;1889;50.058;8.688;2022-12-29T05:08:26;1.60;;;0.80;;
3747;SDS011;1889;50.058;8.688;2022-12-29T05:10:55;1.60;;;0.88;;
3747;SDS011;1889;50.058;8.688;2022-12-29T05:13:25;1.25;;;0.90;;
3747;SDS011;1889;50.058;8.688;2022-12-29T05:15:55;1.30;;;1.20;;
3747;SDS011;1889;50.058;8.688;2022-12-29T05:18:24;1.75;;;0.80;;
3747;SDS011;1889;50.058;8.688;2022-12-29T05:20:53;1.57;;;1.05;;
3747;SDS011;1889;50.058;8.688;2022-12-29T05:23:23;0.88;;;0.70;;
3747;SDS011;1889;50.058;8.688;2022-12-29T05:25:52;1.77;;;0.90;;
3747;SDS011;1889;50.058;8.688;2022-12-29T05:28:21;1.55;;;0.98;;
3747;SDS011;1889;50.058;8.688;2022-12-29T05:30:51;2.98;;;1.37;;
3747;SDS011;1889;50.058;8.688;2022-12-29T05:33:20;2.05;;;0.80;;
3747;SDS011;1889;50.058;8.688;2022-12-29T05:35:49;1.10;;;0.80;;
3747;SDS011;1889;50.058;8.688;2022-12-29T05:38:19;2.05;;;1.05;;
3747;SDS011;1889;50.058;8.688;2022-12-29T05:40:49;2.83;;;0.80;;
3747;SDS011;1889;50.058;8.688;2022-12-29T05:43:18;2.15;;;1.02;;
3747;SDS011;1889;50.058;8.688;2022-12-29T05:45:50;2.65;;;1.45;;
3747;SDS011;1889;50.058;8.688;2022-12-29T05:48:21;0.80;;;0.80;;
3747;SDS011;1889;50.058;8.688;2022-12-29T05:50:50;0.82;;;0.70;;
3747;SDS011;1889;50.058;8.688;2022-12-29T05:53:20;1.05;;;0.90;;
3747;SDS011;1889;50.058;8.688;2022-12-29T05:55:49;1.85;;;0.80;;
3747;SDS011;1889;50.058;8.688;2022-12-29T05:58:22;2.80;;;1.30;;
3747;SDS011;1889;50.058;8.688;2022-12-29T06:00:51;0.72;;;0.62;;
3747;SDS011;1889;50.058;8.688;2022-12-29T06:03:20;1.07;;;0.72;;
3747;SDS011;1889;50.058;8.688;2022-12-29T06:05:50;0.93;;;0.90;;
3747;SDS011;1889;50.058;8.688;2022-12-29T06:08:19;2.55;;;0.70;;
3747;SDS011;1889;50.058;8.688;2022-12-29T06:10:49;1.07;;;1.00;;
3747;SDS011;1889;50.058;8.688;2022-12-29T06:13:18;0.95;;;0.80;;
3747;SDS011;1889;50.058;8.688;2022-12-29T06:15:48;1.42;;;1.00;;
3747;SDS011;1889;50.058;8.688;2022-12-29T06:18:17;0.98;;;0.62;;
3747;SDS011;1889;50.058;8.688;2022-12-29T06:20:47;1.27;;;0.80;;
3747;SDS011;1889;50.058;8.688;2022-12-29T06:23:17;3.50;;;0.70;;
3747;SDS011;1889;50.058;8.688;2022-12-29T06:25:47;1.77;;;1.10;;
3747;SDS011;1889;50.058;8.688;2022-12-29T06:28:16;1.75;;;1.15;;
3747;SDS011;1889;50.058;8.688;2022-12-29T06:30:45;0.85;;;0.70;;
3747;SDS011;1889;50.058;8.688;2022-12-29T06:33:15;0.93;;;0.75;;
3747;SDS011;1889;50.058;8.688;2022-12-29T06:35:45;1.47;;;0.85;;
3747;SDS011;1889;50.058;8.688;2022-12-29T06:38:14;1.00;;;0.88;;
3747;SDS011;1889;50.058;8.688;2022-12-29T06:40:43;1.12;;;0.90;;
3747;SDS011;1889;50.058;8.688;2022-12-29T06:43:13;1.02;;;0.93;;
3747;SDS011;1889;50.058;8.688;2022-12-29T06:45:42;0.90;;;0.90;;
3747;SDS011;1889;50.058;8.688;2022-12-29T06:48:12;2.27;;;0.75;;
3747;SDS011;1889;50.058;8.688;2022-12-29T06:50:41;1.27;;;0.75;;
3747;SDS011;1889;50.058;8.688;2022-12-29T06:53:10;1.42;;;1.00;;
3747;SDS011;1889;50.058;8.688;2022-12-29T06:55:41;1.07;;;1.00;;
3747;SDS011;1889;50.058;8.688;2022-12-29T06:58:10;1.42;;;0.80;;
3747;SDS011;1889;50.058;8.688;2022-12-29T07:00:40;1.47;;;0.90;;
3747;SDS011;1889;50.058;8.688;2022-12-29T07:03:09;2.25;;;0.90;;
3747;SDS011;1889;50.058;8.688;2022-12-29T07:05:38;1.98;;;1.62;;
3747;SDS011;1889;50.058;8.688;2022-12-29T07:08:07;1.25;;;1.07;;
3747;SDS011;1889;50.058;8.688;2022-12-29T07:10:37;4.00;;;1.10;;
3747;SDS011;1889;50.058;8.688;2022-12-29T07:13:06;1.80;;;1.22;;
3747;SDS011;1889;50.058;8.688;2022-12-29T07:15:36;2.05;;;1.30;;
3747;SDS011;1889;50.058;8.688;2022-12-29T07:18:05;1.65;;;1.00;;
3747;SDS011;1889;50.058;8.688;2022-12-29T07:20:35;1.10;;;0.98;;
3747;SDS011;1889;50.058;8.688;2022-12-29T07:23:04;1.55;;;1.25;;
3747;SDS011;1889;50.058;8.688;2022-12-29T07:25:33;2.72;;;1.30;;
3747;SDS011;1889;50.058;8.688;2022-12-29T07:28:03;2.27;;;1.20;;
3747;SDS011;1889;50.058;8.688;2022-12-29T07:30:33;2.85;;;1.40;;
3747;SDS011;1889;50.058;8.688;2022-12-29T07:33:04;3.25;;;1.20;;
3747;SDS011;1889;50.058;8.688;2022-12-29T07:35:33;3.12;;;1.17;;
3747;SDS011;1889;50.058;8.688;2022-12-29T07:38:03;2.22;;;1.15;;
3747;SDS011;1889;50.058;8.688;2022-12-29T07:40:32;3.10;;;1.32;;
3747;SDS011;1889;50.058;8.688;2022-12-29T07:43:01;1.60;;;0.88;;
3747;SDS011;1889;50.058;8.688;2022-12-29T07:45:31;1.50;;;1.02;;
3747;SDS011;1889;50.058;8.688;2022-12-29T07:48:00;1.35;;;1.25;;
3747;SDS011;1889;50.058;8.688;2022-12-29T07:50:30;4.62;;;1.27;;
3747;SDS011;1889;50.058;8.688;2022-12-29T07:52:59;2.60;;;1.07;;
3747;SDS011;1889;50.058;8.688;2022-12-29T07:55:28;2.62;;;1.50;;
3747;SDS011;1889;50.058;8.688;2022-12-29T07:57:58;1.32;;;1.20;;
3747;SDS011;1889;50.058;8.688;2022-12-29T08:00:27;1.20;;;1.10;;
3747;SDS011;1889;50.058;8.688;2022-12-29T08:02:57;1.62;;;1.10;;
3747;SDS011;1889;50.058;8.688;2022-12-29T08:05:26;1.65;;;1.05;;
3747;SDS011;1889;50.058;8.688;2022-12-29T08:07:56;1.47;;;1.00;;
3747;SDS011;1889;50.058;8.688;2022-12-29T08:10:25;1.92;;;1.20;;
3747;SDS011;1889;50.058;8.688;2022-12-29T08:12:54;3.95;;;1.22;;
3747;SDS011;1889;50.058;8.688;2022-12-29T08:15:24;2.95;;;1.27;;
3747;SDS011;1889;50.058;8.688;2022-12-29T08:17:53;2.02;;;1.27;;
3747;SDS011;1889;50.058;8.688;2022-12-29T08:20:22;1.95;;;1.50;;
3747;SDS011;1889;50.058;8.688;2022-12-29T08:22:52;4.03;;;0.88;;
3747;SDS011;1889;50.058;8.688;2022-12-29T08:25:21;3.10;;;1.45;;
3747;SDS011;1889;50.058;8.688;2022-12-29T08:27:50;1.57;;;1.47;;
3747;SDS011;1889;50.058;8.688;2022-12-29T08:30:20;1.75;;;1.60;;
3747;SDS011;1889;50.058;8.688;2022-12-29T08:32:49;1.85;;;1.47;;
3747;SDS011;1889;50.058;8.688;2022-12-29T08:35:18;1.70;;;1.60;;
3747;SDS011;1889;50.058;8.688;2022-12-29T08:37:47;2.00;;;1.35;;
3747;SDS011;1889;50.058;8.688;2022-12-29T08:40:17;2.40;;;1.07;;
3747;SDS011;1889;50.058;8.688;2022-12-29T08:42:46;1.80;;;1.20;;
3747;SDS011;1889;50.058;8.688;2022-12-29T08:45:16;1.92;;;1.30;;
3747;SDS011;1889;50.058;8.688;2022-12-29T08:47:45;2.05;;;1.47;;
3747;SDS011;1889;50.058;8.688;2022-12-29T08:50:14;2.27;;;1.22;;
3747;SDS011;1889;50.058;8.688;2022-12-29T08:52:43;4.95;;;1.50;;
3747;SDS011;1889;50.058;8.688;2022-12-29T08:55:13;2.98;;;1.35;;
3747;SDS011;1889;50.058;8.688;2022-12-29T08:57:42;1.42;;;1.22;;
3747;SDS011;1889;50.058;8.688;2022-12-29T09:00:12;2.45;;;1.67;;
3747;SDS011;1889;50.058;8.688;2022-12-29T09:02:42;2.33;;;1.50;;
3747;SDS011;1889;50.058;8.688;2022-12-29T09:05:11;3.72;;;1.70;;
3747;SDS011;1889;50.058;8.688;2022-12-29T09:07:41;2.40;;;1.50;;
3747;SDS011;1889;50.058;8.688;2022-12-29T09:10:10;3.12;;;1.47;;
3747;SDS011;1889;50.058;8.688;2022-12-29T09:12:40;1.70;;;1.60;;
3747;SDS011;1889;50.058;8.688;2022-12-29T09:15:09;1.98;;;1.70;;
3747;SDS011;1889;50.058;8.688;2022-12-29T09:17:39;3.40;;;1.50;;
3747;SDS011;1889;50.058;8.688;2022-12-29T09:20:11;2.47;;;1.82;;
3747;SDS011;1889;50.058;8.688;2022-12-29T09:22:42;2.55;;;1.62;;
3747;SDS011;1889;50.058;8.688;2022-12-29T09:25:12;2.50;;;1.80;;
3747;SDS011;1889;50.058;8.688;2022-12-29T09:27:41;3.60;;;2.02;;
3747;SDS011;1889;50.058;8.688;2022-12-29T09:30:11;2.98;;;1.95;;
3747;SDS011;1889;50.058;8.688;2022-12-29T09:32:42;4.85;;;2.35;;
3747;SDS011;1889;50.058;8.688;2022-12-29T09:35:11;3.10;;;2.02;;
3747;SDS011;1889;50.058;8.688;2022-12-29T09:37:42;3.92;;;1.85;;
3747;SDS011;1889;50.058;8.688;2022-12-29T09:40:26;3.95;;;2.10;;
3747;SDS011;1889;50.058;8.688;2022-12-29T09:43:17;3.12;;;2.30;;
3747;SDS011;1889;50.058;8.688;2022-12-29T09:46:05;3.52;;;1.92;;
3747;SDS011;1889;50.058;8.688;2022-12-29T09:48:46;2.60;;;2.37;;
3747;SDS011;1889;50.058;8.688;2022-12-29T09:51:19;3.17;;;2.25;;
3747;SDS011;1889;50.058;8.688;2022-12-29T09:53:52;3.17;;;2.12;;
3747;SDS011;1889;50.058;8.688;2022-12-29T09:56:23;2.10;;;1.85;;
3747;SDS011;1889;50.058;8.688;2022-12-29T09:58:59;5.37;;;3.27;;
3747;SDS011;1889;50.058;8.688;2022-12-29T10:01:34;5.58;;;2.40;;
3747;SDS011;1889;50.058;8.688;2022-12-29T10:04:21;5.03;;;3.10;;
3747;SDS011;1889;50.058;8.688;2022-12-29T10:09:33;3.02;;;2.55;;
3747;SDS011;1889;50.058;8.688;2022-12-29T10:17:46;3.65;;;2.62;;
3747;SDS011;1889;50.058;8.688;2022-12-29T10:20:32;2.47;;;1.55;;
3747;SDS011;1889;50.058;8.688;2022-12-29T10:25:57;2.27;;;1.10;;
3747;SDS011;1889;50.058;8.688;2022-12-29T10:31:05;2.87;;;0.93;;
3747;SDS011;1889;50.058;8.688;2022-12-29T10:33:40;1.95;;;0.98;;
3747;SDS011;1889;50.058;8.688;2022-12-29T10:36:12;1.00;;;0.82;;
3747;SDS011;1889;50.058;8.688;2022-12-29T10:38:45;2.15;;;1.00;;
3747;SDS011;1889;50.058;8.688;2022-12-29T10:41:24;1.50;;;1.07;;
3747;SDS011;1889;50.058;8.688;2022-12-29T10:43:54;1.80;;;0.80;;
3747;SDS011;1889;50.058;8.688;2022-12-29T10:46:27;1.50;;;1.00;;
3747;SDS011;1889;50.058;8.688;2022-12-29T10:48:57;1.10;;;1.00;;
3747;SDS011;1889;50.058;8.688;2022-12-29T10:51:30;1.72;;;0.90;;
3747;SDS011;1889;50.058;8.688;2022-12-29T10:54:05;1.27;;;1.00;;
3747;SDS011;1889;50.058;8.688;2022-12-29T10:57:08;0.95;;;0.82;;
3747;SDS011;1889;50.058;8.688;2022-12-29T10:59:31;1.05;;;0.95;;
3747;SDS011;1889;50.058;8.688;2022-12-29T11:04:43;1.12;;;0.70;;
3747;SDS011;1889;50.058;8.688;2022-12-29T11:07:41;1.22;;;0.62;;
3747;SDS011;1889;50.058;8.688;2022-12-29T11:10:18;0.90;;;0.70;;
3747;SDS011;1889;50.058;8.688;2022-12-29T11:12:56;0.75;;;0.75;;
3747;SDS011;1889;50.058;8.688;2022-12-29T11:15:28;1.25;;;0.90;;
3747;SDS011;1889;50.058;8.688;2022-12-29T11:18:22;2.00;;;0.80;;
3747;SDS011;1889;50.058;8.688;2022-12-29T11:20:54;1.85;;;0.82;;
3747;SDS011;1889;50.058;8.688;2022-12-29T11:23:30;1.57;;;1.07;;
3747;SDS011;1889;50.058;8.688;2022-12-29T11:26:20;1.67;;;1.00;;
3747;SDS011;1889;50.058;8.688;2022-12-29T11:31:44;0.95;;;0.88;;
3747;SDS011;1889;50.058;8.688;2022-12-29T11:34:20;1.82;;;1.00;;
3747;SDS011;1889;50.058;8.688;2022-12-29T11:36:58;1.30;;;1.10;;
3747;SDS011;1889;50.058;8.688;2022-12-29T11:39:38;3.75;;;1.30;;
3747;SDS011;1889;50.058;8.688;2022-12-29T11:42:22;0.98;;;0.98;;
3747;SDS011;1889;50.058;8.688;2022-12-29T11:44:52;1.52;;;1.05;;
3747;SDS011;1889;50.058;8.688;2022-12-29T11:47:26;1.20;;;1.10;;
3747;SDS011;1889;50.058;8.688;2022-12-29T11:49:58;1.95;;;0.95;;
3747;SDS011;1889;50.058;8.688;2022-12-29T11:52:31;1.87;;;0.80;;
3747;SDS011;1889;50.058;8.688;2022-12-29T11:55:03;0.85;;;0.70;;
3747;SDS011;1889;50.058;8.688;2022-12-29T11:57:34;1.15;;;0.62;;
3747;SDS011;1889;50.058;8.688;2022-12-29T12:00:18;1.72;;;0.72;;
3747;SDS011;1889;50.058;8.688;2022-12-29T12:02:53;1.35;;;1.00;;
3747;SDS011;1889;50.058;8.688;2022-12-29T12:05:45;1.47;;;0.82;;
3747;SDS011;1889;50.058;8.688;2022-12-29T12:08:19;0.60;;;0.60;;
3747;SDS011;1889;50.058;8.688;2022-12-29T12:11:15;1.87;;;0.90;;
3747;SDS011;1889;50.058;8.688;2022-12-29T12:13:51;1.02;;;0.72;;
3747;SDS011;1889;50.058;8.688;2022-12-29T12:16:24;1.00;;;0.60;;
3747;SDS011;1889;50.058;8.688;2022-12-29T12:18:56;1.67;;;0.60;;
3747;SDS011;1889;50.058;8.688;2022-12-29T12:21:51;1.62;;;0.55;;
3747;SDS011;1889;50.058;8.688;2022-12-29T12:27:23;3.52;;;0.60;;
3747;SDS011;1889;50.058;8.688;2022-12-29T12:30:18;1.35;;;0.35;;
3747;SDS011;1889;50.058;8.688;2022-12-29T12:32:53;1.55;;;0.62;;
3747;SDS011;1889;50.058;8.688;2022-12-29T12:38:15;0.93;;;0.65;;
3747;SDS011;1889;50.058;8.688;2022-12-29T12:40:57;0.98;;;0.70;;
3747;SDS011;1889;50.058;8.688;2022-12-29T12:43:38;1.12;;;0.65;;
3747;SDS011;1889;50.058;8.688;2022-12-29T12:46:18;1.12;;;0.90;;
3747;SDS011;1889;50.058;8.688;2022-12-29T12:52:06;1.45;;;0.70;;
3747;SDS011;1889;50.058;8.688;2022-12-29T12:57:51;1.10;;;0.80;;
3747;SDS011;1889;50.058;8.688;2022-12-29T13:00:34;2.17;;;0.90;;
3747;SDS011;1889;50.058;8.688;2022-12-29T13:03:13;1.45;;;1.07;;
3747;SDS011;1889;50.058;8.688;2022-12-29T13:08:22;2.77;;;1.02;;
3747;SDS011;1889;50.058;8.688;2022-12-29T13:10:59;3.27;;;1.02;;
3747;SDS011;1889;50.058;8.688;2022-12-29T13:16:32;1.25;;;0.80;;
3747;SDS011;1889;50.058;8.688;2022-12-29T13:21:40;1.05;;;0.70;;
3747;SDS011;1889;50.058;8.688;2022-12-29T13:24:15;0.70;;;0.70;;
3747;SDS011;1889;50.058;8.688;2022-12-29T13:26:50;1.07;;;0.72;;
3747;SDS011;1889;50.058;8.688;2022-12-29T13:32:14;1.40;;;0.80;;
3747;SDS011;1889;50.058;8.688;2022-12-29T13:34:53;1.20;;;0.80;;
3747;SDS011;1889;50.058;8.688;2022-12-29T13:37:40;1.37;;;0.78;;
3747;SDS011;1889;50.058;8.688;2022-12-29T13:40:16;1.37;;;0.80;;
3747;SDS011;1889;50.058;8.688;2022-12-29T13:42:47;1.40;;;0.62;;
3747;SDS011;1889;50.058;8.688;2022-12-29T13:45:19;0.68;;;0.68;;
3747;SDS011;1889;50.058;8.688;2022-12-29T13:47:55;1.82;;;0.95;;
3747;SDS011;1889;50.058;8.688;2022-12-29T13:50:33;1.82;;;0.90;;
3747;SDS011;1889;50.058;8.688;2022-12-29T13:56:03;0.95;;;0.80;;
3747;SDS011;1889;50.058;8.688;2022-12-29T13:58:37;1.00;;;0.85;;
3747;SDS011;1889;50.058;8.688;2022-12-29T14:01:27;0.98;;;0.82;;
3747;SDS011;1889;50.058;8.688;2022-12-29T14:04:13;2.50;;;0.80;;
3747;SDS011;1889;50.058;8.688;2022-12-29T14:06:44;1.20;;;0.80;;
3747;SDS011;1889;50.058;8.688;2022-12-29T14:12:28;1.67;;;0.68;;
3747;SDS011;1889;50.058;8.688;2022-12-29T14:17:41;1.60;;;1.00;;
3747;SDS011;1889;50.058;8.688;2022-12-29T14:20:18;1.55;;;0.75;;
3747;SDS011;1889;50.058;8.688;2022-12-29T14:28:27;1.62;;;1.00;;
3747;SDS011;1889;50.058;8.688;2022-12-29T14:31:04;2.62;;;1.10;;
3747;SDS011;1889;50.058;8.688;2022-12-29T14:33:32;3.58;;;1.10;;
3747;SDS011;1889;50.058;8.688;2022-12-29T14:36:21;1.02;;;0.70;;
3747;SDS011;1889;50.058;8.688;2022-12-29T14:38:52;1.72;;;1.00;;
3747;SDS011;1889;50.058;8.688;2022-12-29T14:41:27;1.80;;;0.90;;
3747;SDS011;1889;50.058;8.688;2022-12-29T14:44:01;1.60;;;0.95;;
3747;SDS011;1889;50.058;8.688;2022-12-29T14:46:49;4.45;;;1.10;;
3747;SDS011;1889;50.058;8.688;2022-12-29T14:49:29;0.88;;;0.68;;
3747;SDS011;1889;50.058;8.688;2022-12-29T14:52:05;0.98;;;0.82;;
3747;SDS011;1889;50.058;8.688;2022-12-29T14:54:43;2.27;;;1.10;;
3747;SDS011;1889;50.058;8.688;2022-12-29T14:57:19;4.75;;;0.75;;
3747;SDS011;1889;50.058;8.688;2022-12-29T15:00:08;0.95;;;0.62;;
3747;SDS011;1889;50.058;8.688;2022-12-29T15:02:44;1.65;;;0.62;;
3747;SDS011;1889;50.058;8.688;2022-12-29T15:05:32;2.55;;;0.85;;
3747;SDS011;1889;50.058;8.688;2022-12-29T15:08:02;1.70;;;0.80;;
3747;SDS011;1889;50.058;8.688;2022-12-29T15:13:22;1.22;;;0.80;;
3747;SDS011;1889;50.058;8.688;2022-12-29T15:15:54;2.60;;;0.80;;
3747;SDS011;1889;50.058;8.688;2022-12-29T15:18:24;1.87;;;1.10;;
3747;SDS011;1889;50.058;8.688;2022-12-29T15:20:57;2.80;;;1.07;;
3747;SDS011;1889;50.058;8.688;2022-12-29T15:23:32;1.17;;;0.80;;
3747;SDS011;1889;50.058;8.688;2022-12-29T15:26:04;3.50;;;1.47;;
3747;SDS011;1889;50.058;8.688;2022-12-29T15:28:39;2.75;;;1.00;;
3747;SDS011;1889;50.058;8.688;2022-12-29T15:31:11;2.90;;;1.00;;
3747;SDS011;1889;50.058;8.688;2022-12-29T15:34:07;3.33;;;0.90;;
3747;SDS011;1889;50.058;8.688;2022-12-29T15:36:27;1.50;;;0.93;;
3747;SDS011;1889;50.058;8.688;2022-12-29T15:38:57;2.10;;;0.70;;
3747;SDS011;1889;50.058;8.688;2022-12-29T15:41:36;1.40;;;1.07;;
3747;SDS011;1889;50.058;8.688;2022-12-29T15:44:38;3.83;;;1.30;;
3747;SDS011;1889;50.058;8.688;2022-12-29T15:47:19;2.02;;;1.30;;
3747;SDS011;1889;50.058;8.688;2022-12-29T15:49:52;1.60;;;1.00;;
3747;SDS011;1889;50.058;8.688;2022-12-29T15:52:23;2.47;;;1.07;;
3747;SDS011;1889;50.058;8.688;2022-12-29T15:54:53;1.40;;;1.17;;
3747;SDS011;1889;50.058;8.688;2022-12-29T15:57:24;2.15;;;1.10;;
3747;SDS011;1889;50.058;8.688;2022-12-29T15:59:55;1.47;;;0.90;;
3747;SDS011;1889;50.058;8.688;2022-12-29T16:02:24;1.22;;;1.10;;
3747;SDS011;1889;50.058;8.688;2022-12-29T16:04:55;5.40;;;1.40;;
3747;SDS011;1889;50.058;8.688;2022-12-29T16:07:26;1.98;;;1.47;;
3747;SDS011;1889;50.058;8.688;2022-12-29T16:10:00;1.35;;;0.98;;
3747;SDS011;1889;50.058;8.688;2022-12-29T16:12:35;1.92;;;0.78;;
3747;SDS011;1889;50.058;8.688;2022-12-29T16:15:06;1.35;;;1.15;;
3747;SDS011;1889;50.058;8.688;2022-12-29T16:17:45;1.32;;;0.80;;
3747;SDS011;1889;50.058;8.688;2022-12-29T16:20:19;1.12;;;0.72;;
3747;SDS011;1889;50.058;8.688;2022-12-29T16:22:56;2.20;;;0.78;;
3747;SDS011;1889;50.058;8.688;2022-12-29T16:25:24;1.62;;;1.00;;
3747;SDS011;1889;50.058;8.688;2022-12-29T16:28:14;2.50;;;0.75;;
3747;SDS011;1889;50.058;8.688;2022-12-29T16:30:42;1.62;;;0.90;;
3747;SDS011;1889;50.058;8.688;2022-12-29T16:36:00;3.25;;;0.70;;
3747;SDS011;1889;50.058;8.688;2022-12-29T16:38:30;2.65;;;1.15;;
3747;SDS011;1889;50.058;8.688;2022-12-29T16:41:02;1.80;;;1.05;;
3747;SDS011;1889;50.058;8.688;2022-12-29T16:43:32;0.82;;;0.70;;
3747;SDS011;1889;50.058;8.688;2022-12-29T16:46:26;1.10;;;0.82;;
3747;SDS011;1889;50.058;8.688;2022-12-29T16:48:46;1.02;;;0.70;;
3747;SDS011;1889;50.058;8.688;2022-12-29T16:51:34;1.20;;;0.90;;
3747;SDS011;1889;50.058;8.688;2022-12-29T16:54:04;2.02;;;1.27;;
3747;SDS011;1889;50.058;8.688;2022-12-29T16:56:35;2.67;;;1.07;;
3747;SDS011;1889;50.058;8.688;2022-12-29T16:59:18;0.82;;;0.62;;
3747;SDS011;1889;50.058;8.688;2022-12-29T17:01:46;3.70;;;1.22;;
3747;SDS011;1889;50.058;8.688;2022-12-29T17:04:16;2.40;;;0.80;;
3747;SDS011;1889;50.058;8.688;2022-12-29T17:06:45;1.05;;;0.62;;
3747;SDS011;1889;50.058;8.688;2022-12-29T17:09:24;1.30;;;0.75;;
3747;SDS011;1889;50.058;8.688;2022-12-29T17:11:55;1.55;;;0.93;;
3747;SDS011;1889;50.058;8.688;2022-12-29T17:17:18;2.52;;;0.75;;
3747;SDS011;1889;50.058;8.688;2022-12-29T17:20:13;1.55;;;0.88;;
3747;SDS011;1889;50.058;8.688;2022-12-29T17:22:34;3.12;;;0.85;;
3747;SDS011;1889;50.058;8.688;2022-12-29T17:25:03;2.77;;;0.90;;